createdAt,value
2023-02-08T17:47:08.468Z,50.10
2023-02-08T17:49:36.185Z,54.40
2023-02-08T17:52:03.891Z,49.85
2023-02-08T17:54:31.545Z,43.15
2023-02-08T17:56:59.811Z,43.85
2023-02-08T17:59:27.535Z,42.95
2023-02-08T18:01:55.316Z,43.83
2023-02-08T18:04:24.401Z,45.15
2023-02-08T18:06:52.206Z,42.45
2023-02-08T18:09:19.984Z,47.30
2023-02-08T18:11:47.671Z,43.03
2023-02-08T18:14:15.420Z,39.17
2023-02-08T18:16:43.218Z,41.20
2023-02-08T18:19:10.913Z,41.72
2023-02-08T18:21:39.975Z,44.92
2023-02-08T18:24:07.927Z,53.53
2023-02-08T18:26:35.811Z,58.83
2023-02-08T18:29:04.457Z,58.60
2023-02-08T18:31:32.969Z,61.03
2023-02-08T18:34:01.524Z,59.83
2023-02-08T18:36:29.238Z,59.43
2023-02-08T18:38:58.388Z,61.97
2023-02-08T18:41:28.011Z,58.17
2023-02-08T18:43:57.122Z,56.03
2023-02-08T18:46:26.283Z,56.90
2023-02-08T18:48:54.828Z,52.77
2023-02-08T18:51:23.993Z,54.92
2023-02-08T18:53:53.714Z,58.00
2023-02-08T18:56:25.220Z,57.90
2023-02-08T18:58:53.085Z,60.27
2023-02-08T19:01:22.675Z,59.50
2023-02-08T19:03:51.751Z,54.83
2023-02-08T19:06:22.524Z,48.55
2023-02-08T19:08:51.600Z,47.03
2023-02-08T19:11:22.437Z,47.85
2023-02-08T19:13:50.368Z,46.70
2023-02-08T19:16:19.404Z,47.20
2023-02-08T19:18:48.132Z,46.17
2023-02-08T19:21:17.568Z,44.45
2023-02-08T19:23:46.700Z,42.80
2023-02-08T19:26:17.613Z,40.80
2023-02-08T19:28:46.742Z,39.45
2023-02-08T19:31:17.293Z,34.70
2023-02-08T19:33:46.837Z,33.05
2023-02-08T19:36:16.294Z,34.35
2023-02-08T19:38:44.231Z,37.17
2023-02-08T19:41:16.720Z,50.53
2023-02-08T19:43:45.957Z,50.85
2023-02-08T19:46:15.920Z,47.45
2023-02-08T19:48:43.985Z,46.72
2023-02-08T19:51:11.674Z,43.42
2023-02-08T19:53:39.400Z,46.15
2023-02-08T19:56:08.863Z,38.20
2023-02-08T19:58:37.311Z,37.60
2023-02-08T20:01:08.673Z,35.35
2023-02-08T20:03:36.416Z,32.63
2023-02-08T20:06:04.384Z,33.95
2023-02-08T20:08:32.764Z,31.90
2023-02-08T20:11:00.461Z,34.20
2023-02-08T20:13:28.558Z,31.73
2023-02-08T20:15:59.756Z,36.35
2023-02-08T20:18:28.984Z,35.60
2023-02-08T20:21:01.238Z,34.58
2023-02-08T20:23:29.158Z,33.60
2023-02-08T20:26:10.950Z,33.50
2023-02-08T20:28:39.781Z,40.03
2023-02-08T20:31:08.702Z,36.30
2023-02-08T20:33:38.067Z,37.03
2023-02-08T20:36:10.245Z,41.33
2023-02-08T20:38:38.555Z,40.08
2023-02-08T20:41:08.355Z,41.22
2023-02-08T20:43:36.336Z,41.72
2023-02-08T20:46:06.575Z,38.05
2023-02-08T20:48:34.445Z,38.28
2023-02-08T20:51:08.317Z,35.50
2023-02-08T20:53:36.259Z,36.25
2023-02-08T20:56:06.338Z,32.97
2023-02-08T20:58:34.278Z,29.42
2023-02-08T21:01:02.087Z,34.03
2023-02-08T21:03:29.949Z,32.17
2023-02-08T21:05:58.542Z,30.58
2023-02-08T21:08:27.594Z,27.40
2023-02-08T21:10:55.280Z,26.50
2023-02-08T21:13:26.071Z,26.10
2023-02-08T21:15:53.831Z,26.70
2023-02-08T21:18:21.549Z,28.42
2023-02-08T21:20:50.813Z,30.98
2023-02-08T21:23:18.538Z,37.95
2023-02-08T21:25:47.568Z,37.65
2023-02-08T21:28:15.603Z,45.10
2023-02-08T21:30:44.542Z,35.97
2023-02-08T21:33:12.474Z,34.25
2023-02-08T21:35:40.242Z,30.43
2023-02-08T21:38:07.954Z,30.85
2023-02-08T21:40:35.613Z,29.75
2023-02-08T21:43:04.830Z,25.20
2023-02-08T21:45:32.609Z,26.08
2023-02-08T21:48:00.249Z,25.27
2023-02-08T21:50:45.560Z,27.60
2023-02-08T21:53:31.214Z,22.85
2023-02-08T21:55:59.212Z,16.77
2023-02-08T21:58:28.295Z,18.20
2023-02-08T22:00:55.956Z,25.40
2023-02-08T22:03:23.746Z,30.42
2023-02-08T22:05:51.482Z,22.98
2023-02-08T22:08:19.188Z,15.88
2023-02-08T22:10:57.643Z,15.88
2023-02-08T22:13:25.942Z,14.88
2023-02-08T22:15:55.005Z,13.77
2023-02-08T22:18:22.750Z,18.33
2023-02-08T22:20:52.000Z,18.40
2023-02-08T22:23:19.731Z,15.97
2023-02-08T22:25:47.387Z,13.88
2023-02-08T22:28:15.145Z,15.32
2023-02-08T22:30:43.029Z,15.77
2023-02-08T22:33:12.290Z,12.77
2023-02-08T22:35:40.429Z,11.95
2023-02-08T22:38:08.201Z,10.95
2023-02-08T22:40:35.881Z,11.55
2023-02-08T22:43:03.558Z,10.63
2023-02-08T22:45:31.555Z,11.02
2023-02-08T22:47:59.327Z,10.40
2023-02-08T22:50:28.328Z,9.43
2023-02-08T22:52:56.086Z,12.85
2023-02-08T22:55:23.700Z,12.18
2023-02-08T22:57:51.379Z,10.50
2023-02-08T23:00:19.092Z,7.78
2023-02-08T23:02:47.068Z,10.35
2023-02-08T23:05:14.806Z,10.18
2023-02-08T23:07:44.149Z,8.25
2023-02-08T23:10:12.485Z,10.20
2023-02-08T23:12:40.470Z,9.90
2023-02-08T23:15:08.655Z,9.45
2023-02-08T23:17:37.565Z,7.87
2023-02-08T23:20:05.609Z,9.33
2023-02-08T23:22:33.326Z,9.18
2023-02-08T23:25:02.396Z,8.55
2023-02-08T23:27:30.068Z,8.67
2023-02-08T23:29:57.792Z,9.05
2023-02-08T23:32:25.466Z,8.65
